sensor_id;sensor_type;location;lat;lon;timestamp;temperature;humidity
51719;DHT22;37795;53.236;5.704;2023-04-15T00:01:24;6.60;75.10
51719;DHT22;37795;53.236;5.704;2023-04-15T00:03:52;6.60;75.00
51719;DHT22;37795;53.236;5.704;2023-04-15T00:06:21;6.60;75.10
51719;DHT22;37795;53.236;5.704;2023-04-15T00:08:48;6.50;74.90
51719;DHT22;37795;53.236;5.704;2023-04-15T00:11:15;6.50;74.90
51719;DHT22;37795;53.236;5.704;2023-04-15T00:13:41;6.40;75.40
51719;DHT22;37795;53.236;5.704;2023-04-15T00:16:08;6.40;75.40
51719;DHT22;37795;53.236;5.704;2023-04-15T00:18:34;6.40;75.50
51719;DHT22;37795;53.236;5.704;2023-04-15T00:21:01;6.40;75.80
51719;DHT22;37795;53.236;5.704;2023-04-15T00:23:27;6.30;75.70
51719;DHT22;37795;53.236;5.704;2023-04-15T00:25:53;6.30;76.10
51719;DHT22;37795;53.236;5.704;2023-04-15T00:28:19;6.30;76.10
51719;DHT22;37795;53.236;5.704;2023-04-15T00:30:45;6.40;76.00
51719;DHT22;37795;53.236;5.704;2023-04-15T00:33:12;6.40;76.20
51719;DHT22;37795;53.236;5.704;2023-04-15T00:35:38;6.40;75.90
51719;DHT22;37795;53.236;5.704;2023-04-15T00:38:05;6.20;75.80
51719;DHT22;37795;53.236;5.704;2023-04-15T00:40:32;6.20;76.40
51719;DHT22;37795;53.236;5.704;2023-04-15T00:42:58;6.30;76.40
51719;DHT22;37795;53.236;5.704;2023-04-15T00:45:25;6.30;76.10
51719;DHT22;37795;53.236;5.704;2023-04-15T00:47:50;6.30;76.30
51719;DHT22;37795;53.236;5.704;2023-04-15T00:50:16;6.30;76.20
51719;DHT22;37795;53.236;5.704;2023-04-15T00:52:42;6.20;75.90
51719;DHT22;37795;53.236;5.704;2023-04-15T00:55:08;6.20;76.10
51719;DHT22;37795;53.236;5.704;2023-04-15T00:57:35;6.20;76.10
51719;DHT22;37795;53.236;5.704;2023-04-15T01:00:01;6.20;76.00
51719;DHT22;37795;53.236;5.704;2023-04-15T01:02:30;6.20;75.90
51719;DHT22;37795;53.236;5.704;2023-04-15T01:04:56;6.20;76.00
51719;DHT22;37795;53.236;5.704;2023-04-15T01:07:22;6.20;75.90
51719;DHT22;37795;53.236;5.704;2023-04-15T01:09:48;6.20;75.70
51719;DHT22;37795;53.236;5.704;2023-04-15T01:12:14;6.10;75.90
51719;DHT22;37795;53.236;5.704;2023-04-15T01:14:41;6.10;76.00
51719;DHT22;37795;53.236;5.704;2023-04-15T01:17:07;6.10;75.80
51719;DHT22;37795;53.236;5.704;2023-04-15T01:19:33;6.10;75.90
51719;DHT22;37795;53.236;5.704;2023-04-15T01:22:02;6.00;76.00
51719;DHT22;37795;53.236;5.704;2023-04-15T01:24:29;6.00;76.10
51719;DHT22;37795;53.236;5.704;2023-04-15T01:26:56;6.00;76.50
51719;DHT22;37795;53.236;5.704;2023-04-15T01:29:22;5.90;76.20
51719;DHT22;37795;53.236;5.704;2023-04-15T01:31:52;6.00;76.30
51719;DHT22;37795;53.236;5.704;2023-04-15T01:34:19;5.80;76.00
51719;DHT22;37795;53.236;5.704;2023-04-15T01:36:45;5.80;76.50
51719;DHT22;37795;53.236;5.704;2023-04-15T01:39:11;5.80;76.40
51719;DHT22;37795;53.236;5.704;2023-04-15T01:41:37;5.80;76.60
51719;DHT22;37795;53.236;5.704;2023-04-15T01:44:04;5.70;76.60
51719;DHT22;37795;53.236;5.704;2023-04-15T01:46:31;5.80;76.90
51719;DHT22;37795;53.236;5.704;2023-04-15T01:48:57;5.80;76.90
51719;DHT22;37795;53.236;5.704;2023-04-15T01:51:23;5.80;76.80
51719;DHT22;37795;53.236;5.704;2023-04-15T01:53:48;5.80;76.80
51719;DHT22;37795;53.236;5.704;2023-04-15T01:56:14;5.70;76.90
51719;DHT22;37795;53.236;5.704;2023-04-15T01:58:40;5.70;77.10
51719;DHT22;37795;53.236;5.704;2023-04-15T02:01:06;5.70;77.20
51719;DHT22;37795;53.236;5.704;2023-04-15T02:03:32;5.70;77.30
51719;DHT22;37795;53.236;5.704;2023-04-15T02:05:58;5.70;77.50
51719;DHT22;37795;53.236;5.704;2023-04-15T02:08:24;5.80;77.50
51719;DHT22;37795;53.236;5.704;2023-04-15T02:10:49;5.70;77.30
51719;DHT22;37795;53.236;5.704;2023-04-15T02:13:15;5.70;77.50
51719;DHT22;37795;53.236;5.704;2023-04-15T02:15:46;5.70;77.60
51719;DHT22;37795;53.236;5.704;2023-04-15T02:18:13;5.70;77.60
51719;DHT22;37795;53.236;5.704;2023-04-15T02:20:39;5.60;77.60
51719;DHT22;37795;53.236;5.704;2023-04-15T02:23:05;5.60;77.70
51719;DHT22;37795;53.236;5.704;2023-04-15T02:25:32;5.60;77.90
51719;DHT22;37795;53.236;5.704;2023-04-15T02:27:57;5.60;77.90
51719;DHT22;37795;53.236;5.704;2023-04-15T02:30:23;5.50;77.60
51719;DHT22;37795;53.236;5.704;2023-04-15T02:32:50;5.50;77.80
51719;DHT22;37795;53.236;5.704;2023-04-15T02:35:15;5.50;77.90
51719;DHT22;37795;53.236;5.704;2023-04-15T02:37:43;5.50;78.00
51719;DHT22;37795;53.236;5.704;2023-04-15T02:40:10;5.40;77.70
51719;DHT22;37795;53.236;5.704;2023-04-15T02:42:40;5.40;78.30
51719;DHT22;37795;53.236;5.704;2023-04-15T02:45:07;5.40;78.20
51719;DHT22;37795;53.236;5.704;2023-04-15T02:47:36;5.40;78.40
51719;DHT22;37795;53.236;5.704;2023-04-15T02:50:09;5.30;78.40
51719;DHT22;37795;53.236;5.704;2023-04-15T02:52:40;5.30;78.60
51719;DHT22;37795;53.236;5.704;2023-04-15T02:55:06;5.30;78.60
51719;DHT22;37795;53.236;5.704;2023-04-15T02:57:32;5.40;78.80
51719;DHT22;37795;53.236;5.704;2023-04-15T02:59:59;5.40;78.90
51719;DHT22;37795;53.236;5.704;2023-04-15T03:02:25;5.40;78.80
51719;DHT22;37795;53.236;5.704;2023-04-15T03:04:50;5.40;78.80
51719;DHT22;37795;53.236;5.704;2023-04-15T03:07:17;5.40;78.70
51719;DHT22;37795;53.236;5.704;2023-04-15T03:09:43;5.40;78.70
51719;DHT22;37795;53.236;5.704;2023-04-15T03:12:09;5.30;78.50
51719;DHT22;37795;53.236;5.704;2023-04-15T03:14:35;5.30;78.80
51719;DHT22;37795;53.236;5.704;2023-04-15T03:17:00;5.30;78.80
51719;DHT22;37795;53.236;5.704;2023-04-15T03:19:26;5.20;78.70
51719;DHT22;37795;53.236;5.704;2023-04-15T03:21:51;5.30;78.90
51719;DHT22;37795;53.236;5.704;2023-04-15T03:24:17;5.20;78.90
51719;DHT22;37795;53.236;5.704;2023-04-15T03:26:43;5.20;78.90
51719;DHT22;37795;53.236;5.704;2023-04-15T03:29:09;5.20;78.80
51719;DHT22;37795;53.236;5.704;2023-04-15T03:31:35;5.20;78.90
51719;DHT22;37795;53.236;5.704;2023-04-15T03:34:00;5.30;79.00
51719;DHT22;37795;53.236;5.704;2023-04-15T03:36:30;5.20;78.90
51719;DHT22;37795;53.236;5.704;2023-04-15T03:38:58;5.30;79.10
51719;DHT22;37795;53.236;5.704;2023-04-15T03:41:26;5.30;78.90
51719;DHT22;37795;53.236;5.704;2023-04-15T03:43:53;5.20;78.80
51719;DHT22;37795;53.236;5.704;2023-04-15T03:46:19;5.30;78.70
51719;DHT22;37795;53.236;5.704;2023-04-15T03:48:46;5.30;78.80
51719;DHT22;37795;53.236;5.704;2023-04-15T03:51:11;5.20;78.60
51719;DHT22;37795;53.236;5.704;2023-04-15T03:53:37;5.20;78.60
51719;DHT22;37795;53.236;5.704;2023-04-15T03:56:03;5.10;78.70
51719;DHT22;37795;53.236;5.704;2023-04-15T03:58:29;5.10;78.60
51719;DHT22;37795;53.236;5.704;2023-04-15T04:00:55;5.10;78.60
51719;DHT22;37795;53.236;5.704;2023-04-15T04:03:20;5.10;78.70
51719;DHT22;37795;53.236;5.704;2023-04-15T04:05:46;5.10;78.50
51719;DHT22;37795;53.236;5.704;2023-04-15T04:08:12;5.10;78.60
51719;DHT22;37795;53.236;5.704;2023-04-15T04:10:41;5.00;78.50
51719;DHT22;37795;53.236;5.704;2023-04-15T04:13:07;5.00;78.60
51719;DHT22;37795;53.236;5.704;2023-04-15T04:15:33;5.00;78.50
51719;DHT22;37795;53.236;5.704;2023-04-15T04:17:58;5.00;78.60
51719;DHT22;37795;53.236;5.704;2023-04-15T04:20:25;5.00;78.60
51719;DHT22;37795;53.236;5.704;2023-04-15T04:22:51;5.00;78.70
51719;DHT22;37795;53.236;5.704;2023-04-15T04:25:16;5.00;78.70
51719;DHT22;37795;53.236;5.704;2023-04-15T04:27:42;5.00;78.60
51719;DHT22;37795;53.236;5.704;2023-04-15T04:30:08;5.00;78.80
51719;DHT22;37795;53.236;5.704;2023-04-15T04:32:34;4.90;78.70
51719;DHT22;37795;53.236;5.704;2023-04-15T04:34:59;4.80;79.10
51719;DHT22;37795;53.236;5.704;2023-04-15T04:37:25;4.90;79.20
51719;DHT22;37795;53.236;5.704;2023-04-15T04:39:51;4.80;79.20
51719;DHT22;37795;53.236;5.704;2023-04-15T04:42:17;4.80;79.10
51719;DHT22;37795;53.236;5.704;2023-04-15T04:44:42;4.80;79.10
51719;DHT22;37795;53.236;5.704;2023-04-15T04:47:08;4.90;78.90
51719;DHT22;37795;53.236;5.704;2023-04-15T04:49:34;4.90;78.80
51719;DHT22;37795;53.236;5.704;2023-04-15T04:52:00;4.90;78.70
51719;DHT22;37795;53.236;5.704;2023-04-15T04:54:25;4.90;78.40
51719;DHT22;37795;53.236;5.704;2023-04-15T04:56:52;4.80;78.30
51719;DHT22;37795;53.236;5.704;2023-04-15T04:59:18;4.80;78.40
51719;DHT22;37795;53.236;5.704;2023-04-15T05:01:43;4.80;78.80
51719;DHT22;37795;53.236;5.704;2023-04-15T05:04:09;4.70;78.50
51719;DHT22;37795;53.236;5.704;2023-04-15T05:06:35;4.60;78.50
51719;DHT22;37795;53.236;5.704;2023-04-15T05:09:01;4.50;78.30
51719;DHT22;37795;53.236;5.704;2023-04-15T05:11:28;4.50;78.60
51719;DHT22;37795;53.236;5.704;2023-04-15T05:13:53;4.50;78.60
51719;DHT22;37795;53.236;5.704;2023-04-15T05:16:19;4.60;78.70
51719;DHT22;37795;53.236;5.704;2023-04-15T05:18:45;4.60;78.80
51719;DHT22;37795;53.236;5.704;2023-04-15T05:21:11;4.60;78.80
51719;DHT22;37795;53.236;5.704;2023-04-15T05:23:37;4.60;78.70
51719;DHT22;37795;53.236;5.704;2023-04-15T05:26:03;4.60;78.50
51719;DHT22;37795;53.236;5.704;2023-04-15T05:28:28;4.50;78.50
51719;DHT22;37795;53.236;5.704;2023-04-15T05:30:54;4.70;78.70
51719;DHT22;37795;53.236;5.704;2023-04-15T05:33:20;4.80;78.70
51719;DHT22;37795;53.236;5.704;2023-04-15T05:35:46;4.80;78.90
51719;DHT22;37795;53.236;5.704;2023-04-15T05:38:12;4.80;78.90
51719;DHT22;37795;53.236;5.704;2023-04-15T05:40:37;5.00;79.10
51719;DHT22;37795;53.236;5.704;2023-04-15T05:43:03;5.10;79.00
51719;DHT22;37795;53.236;5.704;2023-04-15T05:45:29;5.20;79.30
51719;DHT22;37795;53.236;5.704;2023-04-15T05:47:54;5.30;79.20
51719;DHT22;37795;53.236;5.704;2023-04-15T05:50:20;5.30;79.10
51719;DHT22;37795;53.236;5.704;2023-04-15T05:52:46;5.40;79.30
51719;DHT22;37795;53.236;5.704;2023-04-15T05:55:12;5.50;79.40
51719;DHT22;37795;53.236;5.704;2023-04-15T05:57:38;5.50;79.70
51719;DHT22;37795;53.236;5.704;2023-04-15T06:00:05;5.60;79.60
51719;DHT22;37795;53.236;5.704;2023-04-15T06:02:31;5.60;79.60
51719;DHT22;37795;53.236;5.704;2023-04-15T06:04:57;5.80;79.60
51719;DHT22;37795;53.236;5.704;2023-04-15T06:07:23;5.90;79.60
51719;DHT22;37795;53.236;5.704;2023-04-15T06:09:48;6.00;79.80
51719;DHT22;37795;53.236;5.704;2023-04-15T06:12:14;6.20;80.00
51719;DHT22;37795;53.236;5.704;2023-04-15T06:14:41;6.40;80.00
51719;DHT22;37795;53.236;5.704;2023-04-15T06:17:07;6.50;79.80
51719;DHT22;37795;53.236;5.704;2023-04-15T06:19:33;6.60;79.90
51719;DHT22;37795;53.236;5.704;2023-04-15T06:21:59;6.80;80.20
51719;DHT22;37795;53.236;5.704;2023-04-15T06:24:25;6.90;80.20
51719;DHT22;37795;53.236;5.704;2023-04-15T06:26:51;7.10;80.30
51719;DHT22;37795;53.236;5.704;2023-04-15T06:29:16;7.30;80.10
51719;DHT22;37795;53.236;5.704;2023-04-15T06:31:42;7.50;79.80
51719;DHT22;37795;53.236;5.704;2023-04-15T06:34:08;7.60;79.80
51719;DHT22;37795;53.236;5.704;2023-04-15T06:36:33;7.80;79.80
51719;DHT22;37795;53.236;5.704;2023-04-15T06:38:59;7.90;79.80
51719;DHT22;37795;53.236;5.704;2023-04-15T06:41:25;8.00;79.60
51719;DHT22;37795;53.236;5.704;2023-04-15T06:43:51;8.10;79.50
51719;DHT22;37795;53.236;5.704;2023-04-15T06:46:17;8.20;79.50
51719;DHT22;37795;53.236;5.704;2023-04-15T06:48:42;8.20;79.40
51719;DHT22;37795;53.236;5.704;2023-04-15T06:56:49;9.00;77.90
51719;DHT22;37795;53.236;5.704;2023-04-15T06:59:15;8.50;78.80
51719;DHT22;37795;53.236;5.704;2023-04-15T07:01:41;8.40;78.80
51719;DHT22;37795;53.236;5.704;2023-04-15T07:04:07;8.40;78.70
51719;DHT22;37795;53.236;5.704;2023-04-15T07:06:33;8.40;78.60
51719;DHT22;37795;53.236;5.704;2023-04-15T07:08:59;8.30;78.60
51719;DHT22;37795;53.236;5.704;2023-04-15T07:11:26;8.30;78.80
51719;DHT22;37795;53.236;5.704;2023-04-15T07:13:51;8.30;79.20
51719;DHT22;37795;53.236;5.704;2023-04-15T07:16:17;8.40;79.00
51719;DHT22;37795;53.236;5.704;2023-04-15T07:18:43;8.40;78.80
51719;DHT22;37795;53.236;5.704;2023-04-15T07:21:09;8.50;78.70
51719;DHT22;37795;53.236;5.704;2023-04-15T07:23:35;8.50;78.80
51719;DHT22;37795;53.236;5.704;2023-04-15T07:26:02;8.60;78.80
51719;DHT22;37795;53.236;5.704;2023-04-15T07:28:28;8.60;78.80
51719;DHT22;37795;53.236;5.704;2023-04-15T07:30:54;8.70;78.90
51719;DHT22;37795;53.236;5.704;2023-04-15T07:33:22;8.70;78.80
51719;DHT22;37795;53.236;5.704;2023-04-15T07:35:48;8.80;78.70
51719;DHT22;37795;53.236;5.704;2023-04-15T07:38:14;8.90;78.50
51719;DHT22;37795;53.236;5.704;2023-04-15T07:40:40;8.90;78.30
51719;DHT22;37795;53.236;5.704;2023-04-15T07:43:07;9.00;77.60
51719;DHT22;37795;53.236;5.704;2023-04-15T07:45:33;9.20;77.30
51719;DHT22;37795;53.236;5.704;2023-04-15T07:48:00;9.20;77.30
51719;DHT22;37795;53.236;5.704;2023-04-15T07:50:27;9.30;76.40
51719;DHT22;37795;53.236;5.704;2023-04-15T07:52:53;9.40;75.40
51719;DHT22;37795;53.236;5.704;2023-04-15T07:55:19;9.50;75.00
51719;DHT22;37795;53.236;5.704;2023-04-15T07:57:47;9.60;74.50
51719;DHT22;37795;53.236;5.704;2023-04-15T08:00:14;9.70;74.30
51719;DHT22;37795;53.236;5.704;2023-04-15T08:02:41;9.80;73.60
51719;DHT22;37795;53.236;5.704;2023-04-15T08:05:07;9.70;72.50
51719;DHT22;37795;53.236;5.704;2023-04-15T08:07:34;9.80;72.60
51719;DHT22;37795;53.236;5.704;2023-04-15T08:10:00;9.80;71.90
51719;DHT22;37795;53.236;5.704;2023-04-15T08:12:26;9.90;71.40
51719;DHT22;37795;53.236;5.704;2023-04-15T08:14:52;10.00;71.60
51719;DHT22;37795;53.236;5.704;2023-04-15T08:17:19;10.00;70.90
51719;DHT22;37795;53.236;5.704;2023-04-15T08:19:45;10.10;70.80
51719;DHT22;37795;53.236;5.704;2023-04-15T08:22:13;10.30;70.50
51719;DHT22;37795;53.236;5.704;2023-04-15T08:24:38;10.20;69.50
51719;DHT22;37795;53.236;5.704;2023-04-15T08:27:04;10.30;69.80
51719;DHT22;37795;53.236;5.704;2023-04-15T08:29:31;10.20;69.20
51719;DHT22;37795;53.236;5.704;2023-04-15T08:31:58;10.20;70.40
51719;DHT22;37795;53.236;5.704;2023-04-15T08:34:23;10.10;69.30
51719;DHT22;37795;53.236;5.704;2023-04-15T08:36:49;10.10;69.70
51719;DHT22;37795;53.236;5.704;2023-04-15T08:39:16;10.20;69.60
51719;DHT22;37795;53.236;5.704;2023-04-15T08:41:55;10.20;70.20
51719;DHT22;37795;53.236;5.704;2023-04-15T08:44:23;10.20;69.10
51719;DHT22;37795;53.236;5.704;2023-04-15T08:46:50;10.20;69.30
51719;DHT22;37795;53.236;5.704;2023-04-15T08:49:17;10.10;69.10
51719;DHT22;37795;53.236;5.704;2023-04-15T08:51:44;10.00;68.90
51719;DHT22;37795;53.236;5.704;2023-04-15T08:54:10;10.10;69.70
51719;DHT22;37795;53.236;5.704;2023-04-15T08:56:37;10.30;70.40
51719;DHT22;37795;53.236;5.704;2023-04-15T08:59:03;10.30;70.20
51719;DHT22;37795;53.236;5.704;2023-04-15T09:01:31;10.40;70.70
51719;DHT22;37795;53.236;5.704;2023-04-15T09:03:58;10.10;70.90
51719;DHT22;37795;53.236;5.704;2023-04-15T09:06:24;10.10;71.90
51719;DHT22;37795;53.236;5.704;2023-04-15T09:08:50;10.30;71.50
51719;DHT22;37795;53.236;5.704;2023-04-15T09:11:17;10.30;71.20
51719;DHT22;37795;53.236;5.704;2023-04-15T09:13:42;10.40;70.50
51719;DHT22;37795;53.236;5.704;2023-04-15T09:16:08;10.50;69.70
51719;DHT22;37795;53.236;5.704;2023-04-15T09:18:36;10.50;69.30
51719;DHT22;37795;53.236;5.704;2023-04-15T09:21:05;10.50;69.80
51719;DHT22;37795;53.236;5.704;2023-04-15T09:23:33;10.60;69.10
51719;DHT22;37795;53.236;5.704;2023-04-15T09:26:01;10.50;68.60
51719;DHT22;37795;53.236;5.704;2023-04-15T09:28:27;10.50;68.70
51719;DHT22;37795;53.236;5.704;2023-04-15T09:33:22;10.70;69.00
51719;DHT22;37795;53.236;5.704;2023-04-15T09:36:03;10.50;68.20
51719;DHT22;37795;53.236;5.704;2023-04-15T09:38:30;10.70;68.20
51719;DHT22;37795;53.236;5.704;2023-04-15T09:40:57;10.80;68.80
51719;DHT22;37795;53.236;5.704;2023-04-15T09:43:39;10.90;67.60
51719;DHT22;37795;53.236;5.704;2023-04-15T09:46:05;10.90;67.70
51719;DHT22;37795;53.236;5.704;2023-04-15T09:48:31;11.00;67.10
51719;DHT22;37795;53.236;5.704;2023-04-15T09:50:58;11.40;67.50
51719;DHT22;37795;53.236;5.704;2023-04-15T09:53:25;11.10;66.00
51719;DHT22;37795;53.236;5.704;2023-04-15T09:55:52;11.20;67.30
51719;DHT22;37795;53.236;5.704;2023-04-15T09:58:26;11.20;67.30
51719;DHT22;37795;53.236;5.704;2023-04-15T10:00:54;11.10;68.00
51719;DHT22;37795;53.236;5.704;2023-04-15T10:03:32;11.50;68.40
51719;DHT22;37795;53.236;5.704;2023-04-15T10:06:00;11.50;67.20
51719;DHT22;37795;53.236;5.704;2023-04-15T10:08:31;11.40;65.80
51719;DHT22;37795;53.236;5.704;2023-04-15T10:10:59;11.40;66.60
51719;DHT22;37795;53.236;5.704;2023-04-15T10:13:26;11.70;66.60
51719;DHT22;37795;53.236;5.704;2023-04-15T10:15:58;11.70;65.90
51719;DHT22;37795;53.236;5.704;2023-04-15T10:18:26;11.60;64.20
51719;DHT22;37795;53.236;5.704;2023-04-15T10:20:52;11.30;63.90
51719;DHT22;37795;53.236;5.704;2023-04-15T10:23:19;11.70;65.40
51719;DHT22;37795;53.236;5.704;2023-04-15T10:25:46;11.90;65.20
51719;DHT22;37795;53.236;5.704;2023-04-15T10:28:15;11.90;65.30
51719;DHT22;37795;53.236;5.704;2023-04-15T10:30:42;11.60;65.10
51719;DHT22;37795;53.236;5.704;2023-04-15T10:33:08;11.90;63.80
51719;DHT22;37795;53.236;5.704;2023-04-15T10:35:35;12.00;64.70
51719;DHT22;37795;53.236;5.704;2023-04-15T10:38:01;11.70;65.50
51719;DHT22;37795;53.236;5.704;2023-04-15T10:40:31;11.50;63.70
51719;DHT22;37795;53.236;5.704;2023-04-15T10:42:58;11.40;65.10
51719;DHT22;37795;53.236;5.704;2023-04-15T10:45:32;11.10;64.90
51719;DHT22;37795;53.236;5.704;2023-04-15T10:48:01;11.10;65.50
51719;DHT22;37795;53.236;5.704;2023-04-15T10:56:51;11.70;65.10
51719;DHT22;37795;53.236;5.704;2023-04-15T10:59:17;11.40;66.80
51719;DHT22;37795;53.236;5.704;2023-04-15T11:01:53;11.40;66.10
51719;DHT22;37795;53.236;5.704;2023-04-15T11:04:53;11.20;66.30
51719;DHT22;37795;53.236;5.704;2023-04-15T11:07:39;11.20;66.30
51719;DHT22;37795;53.236;5.704;2023-04-15T11:12:46;11.10;66.80
51719;DHT22;37795;53.236;5.704;2023-04-15T11:15:28;11.30;66.70
51719;DHT22;37795;53.236;5.704;2023-04-15T11:20:34;10.90;65.80
51719;DHT22;37795;53.236;5.704;2023-04-15T11:23:00;10.80;64.90
51719;DHT22;37795;53.236;5.704;2023-04-15T11:25:27;11.20;65.70
51719;DHT22;37795;53.236;5.704;2023-04-15T11:27:54;11.40;65.70
51719;DHT22;37795;53.236;5.704;2023-04-15T11:30:30;11.30;65.90
51719;DHT22;37795;53.236;5.704;2023-04-15T11:32:58;11.30;64.80
51719;DHT22;37795;53.236;5.704;2023-04-15T11:35:24;11.20;65.10
51719;DHT22;37795;53.236;5.704;2023-04-15T11:37:50;11.30;64.20
51719;DHT22;37795;53.236;5.704;2023-04-15T11:40:22;11.00;64.80
51719;DHT22;37795;53.236;5.704;2023-04-15T11:45:33;11.10;67.50
51719;DHT22;37795;53.236;5.704;2023-04-15T11:48:07;11.10;67.80
51719;DHT22;37795;53.236;5.704;2023-04-15T11:50:34;11.30;67.80
51719;DHT22;37795;53.236;5.704;2023-04-15T11:53:02;11.20;67.40
51719;DHT22;37795;53.236;5.704;2023-04-15T11:55:29;10.90;68.50
51719;DHT22;37795;53.236;5.704;2023-04-15T11:58:15;11.10;69.00
51719;DHT22;37795;53.236;5.704;2023-04-15T12:03:14;10.80;69.20
51719;DHT22;37795;53.236;5.704;2023-04-15T12:11:20;10.90;68.50
51719;DHT22;37795;53.236;5.704;2023-04-15T12:14:05;10.70;67.60
51719;DHT22;37795;53.236;5.704;2023-04-15T12:16:33;10.40;67.40
51719;DHT22;37795;53.236;5.704;2023-04-15T12:19:02;10.80;68.40
51719;DHT22;37795;53.236;5.704;2023-04-15T12:21:34;10.90;68.50
51719;DHT22;37795;53.236;5.704;2023-04-15T12:24:02;10.70;67.90
51719;DHT22;37795;53.236;5.704;2023-04-15T12:26:32;10.40;67.80
51719;DHT22;37795;53.236;5.704;2023-04-15T12:29:06;10.20;68.10
51719;DHT22;37795;53.236;5.704;2023-04-15T12:31:33;10.50;69.80
51719;DHT22;37795;53.236;5.704;2023-04-15T12:34:00;10.60;69.60
51719;DHT22;37795;53.236;5.704;2023-04-15T12:36:27;10.50;67.60
51719;DHT22;37795;53.236;5.704;2023-04-15T12:38:54;10.50;68.60
51719;DHT22;37795;53.236;5.704;2023-04-15T12:41:20;10.40;67.00
51719;DHT22;37795;53.236;5.704;2023-04-15T12:43:46;10.20;67.40
51719;DHT22;37795;53.236;5.704;2023-04-15T12:46:12;9.90;68.10
51719;DHT22;37795;53.236;5.704;2023-04-15T12:48:39;10.10;69.40
51719;DHT22;37795;53.236;5.704;2023-04-15T12:51:05;10.30;68.40
51719;DHT22;37795;53.236;5.704;2023-04-15T12:53:31;10.20;69.10
51719;DHT22;37795;53.236;5.704;2023-04-15T12:55:57;10.20;68.10
51719;DHT22;37795;53.236;5.704;2023-04-15T12:58:23;10.40;68.70
51719;DHT22;37795;53.236;5.704;2023-04-15T13:00:48;10.40;69.00
51719;DHT22;37795;53.236;5.704;2023-04-15T13:03:15;10.50;69.00
51719;DHT22;37795;53.236;5.704;2023-04-15T13:05:41;10.60;68.70
51719;DHT22;37795;53.236;5.704;2023-04-15T13:08:07;10.60;68.90
51719;DHT22;37795;53.236;5.704;2023-04-15T13:10:34;10.70;68.60
51719;DHT22;37795;53.236;5.704;2023-04-15T13:13:03;10.60;67.90
51719;DHT22;37795;53.236;5.704;2023-04-15T13:15:29;10.60;68.10
51719;DHT22;37795;53.236;5.704;2023-04-15T13:17:55;10.40;68.00
51719;DHT22;37795;53.236;5.704;2023-04-15T13:20:21;10.10;67.90
51719;DHT22;37795;53.236;5.704;2023-04-15T13:22:47;9.90;68.80
51719;DHT22;37795;53.236;5.704;2023-04-15T13:25:13;10.00;69.60
51719;DHT22;37795;53.236;5.704;2023-04-15T13:27:39;10.30;70.60
51719;DHT22;37795;53.236;5.704;2023-04-15T13:30:05;10.50;70.30
51719;DHT22;37795;53.236;5.704;2023-04-15T13:32:31;10.40;69.90
51719;DHT22;37795;53.236;5.704;2023-04-15T13:34:57;10.50;70.00
51719;DHT22;37795;53.236;5.704;2023-04-15T13:37:27;10.50;69.10
51719;DHT22;37795;53.236;5.704;2023-04-15T13:39:53;10.50;69.60
51719;DHT22;37795;53.236;5.704;2023-04-15T13:42:20;10.50;69.50
51719;DHT22;37795;53.236;5.704;2023-04-15T13:44:46;10.60;69.40
51719;DHT22;37795;53.236;5.704;2023-04-15T13:47:12;10.50;69.10
51719;DHT22;37795;53.236;5.704;2023-04-15T13:49:39;10.50;68.70
51719;DHT22;37795;53.236;5.704;2023-04-15T13:52:05;10.50;68.70
51719;DHT22;37795;53.236;5.704;2023-04-15T13:54:31;10.30;69.10
51719;DHT22;37795;53.236;5.704;2023-04-15T13:56:57;10.20;68.40
51719;DHT22;37795;53.236;5.704;2023-04-15T13:59:22;10.10;69.60
51719;DHT22;37795;53.236;5.704;2023-04-15T14:01:48;10.40;69.70
51719;DHT22;37795;53.236;5.704;2023-04-15T14:04:14;10.50;69.30
51719;DHT22;37795;53.236;5.704;2023-04-15T14:06:40;10.40;69.20
51719;DHT22;37795;53.236;5.704;2023-04-15T14:09:06;10.50;68.90
51719;DHT22;37795;53.236;5.704;2023-04-15T14:11:31;10.20;68.40
51719;DHT22;37795;53.236;5.704;2023-04-15T14:13:59;10.20;69.20
51719;DHT22;37795;53.236;5.704;2023-04-15T14:16:25;10.40;69.20
51719;DHT22;37795;53.236;5.704;2023-04-15T14:18:51;10.40;68.60
51719;DHT22;37795;53.236;5.704;2023-04-15T14:21:17;10.50;68.60
51719;DHT22;37795;53.236;5.704;2023-04-15T14:23:42;10.60;68.30
51719;DHT22;37795;53.236;5.704;2023-04-15T14:26:08;10.50;68.20
51719;DHT22;37795;53.236;5.704;2023-04-15T14:28:34;10.50;68.60
51719;DHT22;37795;53.236;5.704;2023-04-15T14:31:00;10.40;68.80
51719;DHT22;37795;53.236;5.704;2023-04-15T14:33:26;10.60;68.30
51719;DHT22;37795;53.236;5.704;2023-04-15T14:35:51;10.70;67.90
51719;DHT22;37795;53.236;5.704;2023-04-15T14:38:17;10.60;68.10
51719;DHT22;37795;53.236;5.704;2023-04-15T14:40:43;10.60;67.70
51719;DHT22;37795;53.236;5.704;2023-04-15T14:43:09;10.70;68.10
51719;DHT22;37795;53.236;5.704;2023-04-15T14:45:36;10.70;68.00
51719;DHT22;37795;53.236;5.704;2023-04-15T14:48:02;10.80;68.30
51719;DHT22;37795;53.236;5.704;2023-04-15T14:50:28;10.80;68.00
51719;DHT22;37795;53.236;5.704;2023-04-15T14:52:54;10.70;67.90
51719;DHT22;37795;53.236;5.704;2023-04-15T14:55:19;10.80;67.90
51719;DHT22;37795;53.236;5.704;2023-04-15T14:57:45;10.70;67.80
51719;DHT22;37795;53.236;5.704;2023-04-15T15:00:11;10.80;68.00
51719;DHT22;37795;53.236;5.704;2023-04-15T15:02:37;10.70;68.00
51719;DHT22;37795;53.236;5.704;2023-04-15T15:05:03;10.70;68.00
51719;DHT22;37795;53.236;5.704;2023-04-15T15:07:29;10.70;67.90
51719;DHT22;37795;53.236;5.704;2023-04-15T15:09:55;10.70;67.80
51719;DHT22;37795;53.236;5.704;2023-04-15T15:12:21;10.70;68.00
51719;DHT22;37795;53.236;5.704;2023-04-15T15:14:49;10.80;68.20
51719;DHT22;37795;53.236;5.704;2023-04-15T15:17:15;10.70;68.40
51719;DHT22;37795;53.236;5.704;2023-04-15T15:19:41;10.70;68.20
51719;DHT22;37795;53.236;5.704;2023-04-15T15:22:07;10.80;68.20
51719;DHT22;37795;53.236;5.704;2023-04-15T15:24:32;10.80;68.00
51719;DHT22;37795;53.236;5.704;2023-04-15T15:26:58;10.70;67.90
51719;DHT22;37795;53.236;5.704;2023-04-15T15:29:24;10.70;68.50
51719;DHT22;37795;53.236;5.704;2023-04-15T15:31:50;10.70;68.30
51719;DHT22;37795;53.236;5.704;2023-04-15T15:34:16;10.70;68.40
51719;DHT22;37795;53.236;5.704;2023-04-15T15:36:43;10.60;68.30
51719;DHT22;37795;53.236;5.704;2023-04-15T15:39:09;10.60;68.70
51719;DHT22;37795;53.236;5.704;2023-04-15T15:41:35;10.60;68.50
51719;DHT22;37795;53.236;5.704;2023-04-15T15:44:01;10.60;68.80
51719;DHT22;37795;53.236;5.704;2023-04-15T15:46:27;10.50;69.00
51719;DHT22;37795;53.236;5.704;2023-04-15T15:48:56;10.50;69.00
51719;DHT22;37795;53.236;5.704;2023-04-15T15:51:21;10.40;68.80
51719;DHT22;37795;53.236;5.704;2023-04-15T15:53:47;10.40;68.70
51719;DHT22;37795;53.236;5.704;2023-04-15T15:56:13;10.40;68.90
51719;DHT22;37795;53.236;5.704;2023-04-15T15:58:38;10.40;69.00
51719;DHT22;37795;53.236;5.704;2023-04-15T16:01:04;10.40;69.10
51719;DHT22;37795;53.236;5.704;2023-04-15T16:03:30;10.30;69.30
51719;DHT22;37795;53.236;5.704;2023-04-15T16:05:56;10.30;69.40
51719;DHT22;37795;53.236;5.704;2023-04-15T16:08:21;10.30;69.80